Westmoreland, New York
Current Conditions -  °F | °C
As of 1:53 PM on Saturday 25 Oct 2014 (Local Time) from KRME Reporting Station
Clear Clear  
Wind Chill: 16°   Ceiling: Unl
Heat Index: 16°   Visibility: 10mi
Dew Point:   Wind: 12mph
Humidity: 58%   Direction: 250°WSW
Pressure: 29.65"   Gusts: 17mph
Location:  43.11°N, 75.4°W
Report Text: KRME 251753Z 25010G15KT 10SM CLR 16/08 A2965 RMK AO2 PRESFR SLP041 T01610078 10167 20067 56047
Loading
Personal Weather Stations






























Interactive Weather Map
Tropical Storm Tracking
New forecast layout! Learn more

10-Day Weather Forecast

Advertisements
Track Severe Weather on mobile